Data for 08/04/2010

Time Sea-Level Adjusted Pressure Absolute Pressure Temperature Relative Humidity Dew Point   
(mb) (inHg) (mb) (inHg) (C) (F) (%) (C) (F)
00:05 1024 30.24 853 25.19 15.9 60.6 63 9 48.2
00:10 1024 30.24 853 25.19 15.9 60.6 64 9.1 48.3
00:15 1024 30.24 853 25.19 15.9 60.7 64 9.1 48.5
00:20 1024 30.24 853 25.19 15.9 60.6 64 9.2 48.6
00:25 1024 30.24 853 25.19 15.8 60.5 65 9.3 48.7
00:30 1024 30.24 853 25.19 15.8 60.5 65 9.4 48.8
00:35 1024 30.24 853 25.19 15.8 60.4 65 9.4 48.9
00:40 1024 30.24 853 25.19 15.7 60.3 66 9.3 48.8
00:45 1024 30.24 853 25.19 15.8 60.4 65 9.3 48.8
00:50 1024 30.24 853 25.19 15.8 60.4 65 9.3 48.7
00:55 1024 30.24 853 25.19 15.8 60.4 65 9.2 48.6
01:00 1024 30.24 853 25.19 15.8 60.4 65 9.4 48.9
01:05 1024 30.24 853 25.19 15.7 60.3 66 9.3 48.8
01:10 1024 30.24 853 25.19 15.7 60.3 65 9.3 48.8
01:15 1024 30.24 853 25.19 15.7 60.3 65 9.2 48.6
01:20 1024 30.24 853 25.19 15.8 60.4 65 9.2 48.6
01:25 1024 30.24 853 25.19 15.8 60.5 65 9.3 48.7
01:30 1024 30.24 853 25.19 15.8 60.5 65 9.2 48.6
01:35 1024 30.24 853 25.19 15.8 60.5 65 9.3 48.7
01:40 1024 30.24 853 25.19 15.7 60.3 66 9.4 48.9
01:45 1024 30.24 853 25.19 15.6 60 66 9.4 49
01:50 1024 30.24 853 25.19 15.5 59.9 67 9.5 49
01:55 1024 30.24 853 25.19 15.5 59.8 67 9.5 49
02:00 1024 30.24 853 25.19 15.4 59.7 68 9.5 49.1
02:05 1024 30.24 853 25.19 15.4 59.6 68 9.5 49
02:10 1024 30.24 853 25.19 15.3 59.5 68 9.5 49.1
02:15 1024 30.24 853 25.19 15.2 59.4 68 9.4 49
02:20 1024 30.24 853 25.19 15.2 59.4 68 9.4 49
02:25 1024 30.24 853 25.19 15.2 59.4 68 9.4 49
02:30 1024 30.24 853 25.19 15.2 59.3 68 9.4 49
02:35 1024 30.24 853 25.19 15.1 59.2 69 9.5 49
02:40 1024 30.24 853 25.19 15.1 59.1 69 9.4 49
02:45 1024 30.24 853 25.19 15 59 69 9.4 48.9
02:50 1024 30.24 853 25.19 15 59 69 9.4 49
02:55 1024 30.24 853 25.19 14.9 58.8 69 9.4 48.9
03:00 1024 30.24 853 25.19 14.8 58.7 69 9.4 48.8
03:05 1024 30.24 853 25.19 14.9 58.7 69 9.3 48.8
03:10 1024 30.24 853 25.19 14.8 58.7 70 9.4 48.9
03:15 1024 30.24 853 25.19 14.8 58.6 70 9.4 48.8
03:20 1024 30.24 853 25.19 14.8 58.6 70 9.4 48.9
03:25 1024 30.24 853 25.19 14.7 58.5 70 9.4 48.9
03:30 1024 30.24 853 25.19 14.7 58.5 70 9.4 49
03:35 1024 30.24 853 25.19 14.7 58.4 70 9.4 48.9
03:40 1024 30.24 853 25.19 14.7 58.5 70 9.4 48.9
03:45 1024 30.24 853 25.19 14.7 58.5 70 9.4 48.9
03:50 1024 30.24 853 25.19 15 59 69 9.4 49
03:55 1024 30.24 853 25.19 15.1 59.3 68 9.4 49
04:00 1024 30.24 853 25.19 15.2 59.3 68 9.5 49
04:05 1024 30.24 853 25.19 15.2 59.4 68 9.5 49.1
04:10 1024 30.24 853 25.19 15.2 59.3 69 9.5 49.1
04:15 1024 30.24 854 25.22 15.2 59.3 68 9.4 49
04:20 1024 30.24 854 25.22 15.2 59.3 68 9.3 48.8
04:25 1024 30.24 854 25.22 15.1 59.2 68 9.2 48.6
04:30 1024 30.24 853 25.19 15 59 68 9.1 48.4
04:35 1024 30.24 853 25.19 14.9 58.9 68 9.1 48.4
04:40 1024 30.24 853 25.19 14.8 58.6 68 9 48.2
04:45 1024 30.24 853 25.19 14.7 58.5 68 8.9 48
04:50 1024 30.24 853 25.19 14.6 58.3 68 8.9 48
04:55 1024 30.24 853 25.19 14.5 58.1 68 8.8 47.8
05:00 1024 30.24 853 25.19 14.5 58.1 68 8.6 47.6
05:05 1024 30.24 853 25.19 14.5 58.2 67 8.6 47.5
05:10 1024 30.24 853 25.19 14.5 58.2 67 8.6 47.4
05:15 1024 30.24 853 25.19 14.5 58.1 67 8.6 47.4
05:20 1024 30.24 853 25.19 14.5 58.1 67 8.4 47.2
05:25 1024 30.24 853 25.19 14.5 58.1 67 8.5 47.3
05:30 1024 30.24 853 25.19 14.5 58 67 8.4 47.2
05:35 1024 30.24 853 25.19 14.4 58 67 8.4 47.1
05:40 1024 30.24 853 25.19 14.4 58 67 8.4 47.1
05:45 1024 30.24 853 25.19 14.3 57.8 67 8.3 47
05:50 1024 30.24 853 25.19 14.3 57.7 67 8.3 46.9
05:55 1024 30.24 853 25.19 14.3 57.7 67 8.3 46.9
06:00 1024 30.24 853 25.19 14.2 57.5 67 8.2 46.8
06:05 1024 30.24 853 25.19 14.1 57.3 68 8.2 46.8
06:10 1024 30.24 853 25.19 14 57.1 68 8.1 46.7
06:15 1024 30.24 853 25.19 14 57.1 68 8.2 46.7
06:20 1024 30.24 853 25.19 13.9 57 69 8.2 46.8
06:25 1024 30.24 853 25.19 13.8 56.8 69 8.1 46.6
06:30 1024 30.24 853 25.19 13.8 56.9 68 8.1 46.6
06:35 1024 30.24 853 25.19 13.8 56.8 69 8.1 46.7
06:40 1024 30.24 853 25.19 13.8 56.8 69 8.2 46.7
06:45 1024 30.24 853 25.19 13.8 56.8 69 8.2 46.7
06:50 1024 30.24 853 25.19 13.7 56.7 69 8.2 46.8
06:55 1024 30.24 853 25.19 13.7 56.6 69 8.1 46.5
07:00 1024 30.24 853 25.19 13.8 56.8 68 8.1 46.6
07:05 1024 30.24 853 25.19 13.8 56.8 68 8.1 46.6
07:10 1024 30.24 853 25.19 13.9 57 68 8.1 46.5
07:15 1024 30.24 853 25.19 14 57.3 67 8.1 46.6
07:20 1024 30.24 853 25.19 14.1 57.4 67 8.1 46.6
07:25 1024 30.24 853 25.19 14.2 57.6 67 8.1 46.6
07:30 1024 30.24 853 25.19 14.3 57.7 66 8.1 46.6
07:35 1024 30.24 853 25.19 14.3 57.8 66 8.1 46.6
07:40 1024 30.24 853 25.19 14.4 58 65 8.1 46.5
07:45 1024 30.24 853 25.19 14.6 58.3 65 8.1 46.6
07:50 1024 30.24 853 25.19 14.7 58.5 64 8.1 46.6
07:55 1024 30.24 853 25.19 14.9 58.7 64 8.1 46.6
08:00 1024 30.24 853 25.19 15 58.9 64 8.2 46.8
08:05 1024 30.24 853 25.19 15 59 64 8.2 46.8
08:10 1024 30.24 853 25.19 15 59 64 8.3 46.9
08:15 1024 30.24 853 25.19 15.1 59.1 63 8.3 46.9
08:20 1024 30.24 853 25.19 15.2 59.3 64 8.4 47.1
08:25 1024 30.24 853 25.19 15.3 59.5 63 8.4 47
08:30 1024 30.24 853 25.19 15.3 59.5 63 8.5 47.3
08:35 1024 30.24 853 25.19 15.5 59.9 63 8.6 47.4
08:40 1024 30.24 853 25.19 15.5 59.9 63 8.6 47.4
08:45 1024 30.24 853 25.19 15.7 60.2 62 8.4 47.2
08:50 1024 30.24 853 25.19 15.8 60.5 62 8.7 47.6
08:55 1024 30.24 853 25.19 15.8 60.5 62 8.6 47.4
09:00 1024 30.24 853 25.19 15.9 60.6 62 8.7 47.7
09:05 1024 30.24 853 25.19 15.8 60.4 62 8.7 47.7
09:10 1024 30.24 853 25.19 16.2 61.1 61 8.7 47.7
09:15 1024 30.24 853 25.19 16.2 61.1 62 8.9 47.9
09:20 1024 30.24 853 25.19 16.2 61.2 61 8.7 47.6
09:25 1024 30.24 853 25.19 16.5 61.7 60 8.8 47.8
09:30 1024 30.24 853 25.19 16.6 61.8 60 8.8 47.9
09:35 1024 30.24 853 25.19 16.8 62.2 59 8.8 47.8
09:40 1024 30.24 853 25.19 16.9 62.5 59 8.9 48
09:45 1024 30.24 853 25.19 17.2 63 58 9.1 48.3
09:50 1024 30.24 853 25.19 17.6 63.6 58 9.3 48.7
09:55 1024 30.24 853 25.19 17.5 63.5 57 9 48.3
10:00 1024 30.24 853 25.19 17.9 64.2 56 9.1 48.3
10:05 1024 30.24 853 25.19 17.9 64.1 57 9.3 48.7
10:10 1024 30.24 853 25.19 18.1 64.7 54 8.9 47.9
10:15 1024 30.24 853 25.19 18.5 65.3 54 9.2 48.6
10:20 1024 30.24 853 25.19 18.3 65 56 9.4 49
10:25 1024 30.24 853 25.19 18 64.4 57 9.5 49.1
10:30 1024 30.24 853 25.19 18.4 65.1 56 9.6 49.2
10:35 1024 30.24 853 25.19 18.7 65.7 55 9.6 49.2
10:40 1024 30.24 853 25.19 19.1 66.3 52 9.2 48.6
10:45 1024 30.24 853 25.19 18.9 65.9 55 9.8 49.6
10:50 1024 30.24 853 25.19 19 66.3 53 9.5 49
10:55 1024 30.24 853 25.19 18.8 65.9 54 9.5 49.1
11:00 1024 30.24 853 25.19 19.2 66.5 53 9.5 49
11:05 1024 30.24 853 25.19 19.2 66.6 52 9.3 48.8
11:10 1024 30.24 853 25.19 19.2 66.5 53 9.6 49.3
11:15 1024 30.24 853 25.19 19.3 66.8 53 9.5 49.2
11:20 1024 30.24 853 25.19 19 66.3 53 9.5 49
11:25 1024 30.24 853 25.19 19.2 66.6 53 9.6 49.3
11:30 1024 30.24 853 25.19 19.4 66.9 52 9.4 48.8
11:35 1024 30.24 853 25.19 19.3 66.8 53 9.6 49.2
11:40 1024 30.24 853 25.19 19.4 66.9 52 9.3 48.7
11:45 1024 30.24 853 25.19 19.9 67.7 52 9.8 49.6
11:50 1024 30.24 853 25.19 19.9 67.8 50 9.5 49
11:55 1024 30.24 853 25.19 19.6 67.2 51 9.3 48.8
12:00 1024 30.24 853 25.19 20 67.9 49 9.1 48.4
12:05 1024 30.24 853 25.19 20 67.9 50 9.5 49.1
12:10 1024 30.24 853 25.19 20 67.9 50 9.4 48.9
12:15 1023 30.21 853 25.19 19.9 67.7 52 9.8 49.7
12:20 1023 30.21 853 25.19 19.9 67.8 52 9.8 49.7
12:25 1023 30.21 853 25.19 19.7 67.5 51 9.3 48.8
12:30 1023 30.21 852 25.16 20.3 68.6 50 9.7 49.5
12:35 1023 30.21 852 25.16 20.4 68.6 49 9.5 49.1
12:40 1023 30.21 852 25.16 20.4 68.8 49 9.4 49
12:45 1023 30.21 852 25.16 20.6 69 49 9.7 49.4
12:50 1023 30.21 852 25.16 20.5 68.9 50 9.7 49.5
12:55 1023 30.21 852 25.16 20.1 68.2 50 9.5 49.2
13:00 1023 30.21 852 25.16 20.2 68.4 51 9.9 49.9
13:05 1023 30.21 852 25.16 20.2 68.4 49 9.3 48.7
13:10 1023 30.21 852 25.16 20.4 68.8 50 9.9 49.8
13:15 1023 30.21 852 25.16 20.6 69.1 49 9.5 49.2
13:20 1023 30.21 852 25.16 20.9 69.5 49 9.8 49.7
13:25 1023 30.21 852 25.16 20.6 69.1 48 9.5 49
13:30 1023 30.21 852 25.16 20.8 69.5 47 9.4 49
13:35 1023 30.21 852 25.16 20.8 69.4 49 9.7 49.5
13:40 1023 30.21 852 25.16 20.7 69.2 49 9.7 49.5
13:45 1023 30.21 852 25.16 20.7 69.2 50 10 49.9
13:50 1023 30.21 852 25.16 21.2 70.2 48 9.8 49.6
13:55 1023 30.21 852 25.16 21.3 70.3 47 9.8 49.6
14:00 1023 30.21 852 25.16 21.2 70.2 48 9.8 49.7
14:05 1023 30.21 852 25.16 21.4 70.4 48 9.9 49.8
14:10 1023 30.21 852 25.16 21.4 70.4 47 9.9 49.8
14:15 1023 30.21 852 25.16 21.3 70.4 48 10 50.1
14:20 1023 30.21 852 25.16 21.5 70.8 47 9.8 49.6
14:25 1023 30.21 852 25.16 21.6 70.9 48 10.2 50.4
14:30 1023 30.21 852 25.16 21.5 70.6 47 10 50
14:35 1023 30.21 852 25.16 21.2 70.1 48 9.8 49.6
14:40 1023 30.21 852 25.16 21.5 70.6 47 10 49.9
14:45 1023 30.21 852 25.16 21.3 70.3 48 10.1 50.1
14:50 1023 30.21 852 25.16 21.6 70.8 47 9.8 49.7
14:55 1022 30.18 852 25.16 21.8 71.2 46 9.8 49.6
15:00 1022 30.18 852 25.16 22.2 71.9 44 9.6 49.4
15:05 1022 30.18 852 25.16 22 71.6 45 9.7 49.5
15:10 1022 30.18 852 25.16 22 71.6 46 10.1 50.2
15:15 1022 30.18 852 25.16 21.8 71.2 46 9.9 49.8
15:20 1022 30.18 852 25.16 22.5 72.4 44 9.8 49.6
15:25 1022 30.18 852 25.16 22.1 71.9 45 10 50
15:30 1022 30.18 852 25.16 22.1 71.7 45 9.8 49.7
15:35 1022 30.18 851 25.13 22.1 71.7 45 9.9 49.7
15:40 1022 30.18 851 25.13 22.4 72.2 45 10 50.1
15:45 1022 30.18 851 25.13 22.7 72.8 44 10.1 50.2
15:50 1022 30.18 851 25.13 23 73.4 44 10.2 50.4
15:55 1022 30.18 851 25.13 22.8 73 44 10 50
16:00 1022 30.18 852 25.16 22.3 72.2 46 10.3 50.6
16:05 1022 30.18 852 25.16 22.5 72.5 45 10 50
16:10 1022 30.18 852 25.16 22.4 72.3 44 9.7 49.5
16:15 1022 30.18 851 25.13 22.8 73.1 43 9.9 49.8
16:20 1022 30.18 851 25.13 22.7 72.9 43 9.6 49.3
16:25 1022 30.18 851 25.13 22.4 72.2 46 10.3 50.6
16:30 1022 30.18 851 25.13 22.4 72.2 45 10.1 50.2
16:35 1022 30.18 851 25.13 22.6 72.7 44 9.9 49.7
16:40 1022 30.18 851 25.13 22.5 72.5 45 10.3 50.5
16:45 1022 30.18 851 25.13 22.5 72.6 44 9.7 49.5
16:50 1022 30.18 851 25.13 22.6 72.6 45 10.2 50.4
16:55 1022 30.18 851 25.13 22.5 72.4 45 10.2 50.4
17:00 1022 30.18 851 25.13 22.8 73.1 44 10.1 50.2
17:05 1022 30.18 851 25.13 22.6 72.7 44 10 49.9
17:10 1022 30.18 851 25.13 22.2 72 46 10.1 50.2
17:15 1022 30.18 851 25.13 22.3 72.2 45 10 50.1
17:20 1022 30.18 851 25.13 22.5 72.4 45 10.2 50.4
17:25 1022 30.18 851 25.13 22.2 72 46 10.3 50.6
17:30 1022 30.18 851 25.13 22 71.6 46 9.9 49.9
17:35 1022 30.18 851 25.13 22.1 71.8 46 10.2 50.4
17:40 1022 30.18 851 25.13 22.2 71.9 47 10.3 50.6
17:45 1022 30.18 851 25.13 22.1 71.9 46 10.3 50.5
17:50 1022 30.18 851 25.13 22.1 71.7 47 10.4 50.7
17:55 1022 30.18 851 25.13 22 71.5 46 10.1 50.3
18:00 1022 30.18 851 25.13 21.9 71.3 46 10 50.1
18:05 1022 30.18 851 25.13 21.9 71.4 47 10.2 50.3
18:10 1022 30.18 851 25.13 21.9 71.5 48 10.5 51
18:15 1022 30.18 851 25.13 22 71.7 47 10.4 50.7
18:20 1022 30.18 851 25.13 21.8 71.2 48 10.4 50.8
18:25 1022 30.18 851 25.13 21.4 70.6 48 10.1 50.3
18:30 1022 30.18 851 25.13 21.5 70.7 48 10.1 50.2
18:35 1022 30.18 851 25.13 21.4 70.5 49 10.3 50.5
18:40 1022 30.18 851 25.13 21.5 70.7 48 10.1 50.3
18:45 1022 30.18 851 25.13 21.5 70.8 49 10.4 50.7
18:50 1022 30.18 851 25.13 21.2 70.1 50 10.5 50.9
18:55 1022 30.18 851 25.13 21 69.8 50 10.4 50.8
19:00 1022 30.18 851 25.13 20.9 69.5 51 10.4 50.6
19:05 1022 30.18 851 25.13 20.7 69.2 51 10.2 50.4
19:10 1022 30.18 851 25.13 20.7 69.3 50 10 50.1
19:15 1022 30.18 851 25.13 20.7 69.2 50 10 50
19:20 1022 30.18 851 25.13 20.5 69 51 10.1 50.3
19:25 1022 30.18 851 25.13 20.4 68.8 51 10.1 50.1
19:30 1022 30.18 851 25.13 20.3 68.6 51 10.1 50.2
19:35 1022 30.18 851 25.13 20.2 68.4 51 10 50.1
19:40 1022 30.18 851 25.13 20.2 68.3 51 9.9 49.9
19:45 1022 30.18 851 25.13 20.1 68.2 52 10.1 50.2
19:50 1022 30.18 851 25.13 20 68 53 10.2 50.3
19:55 1022 30.18 851 25.13 19.9 67.9 53 10.1 50.1
20:00 1022 30.18 851 25.13 19.9 67.7 52 9.9 49.9
20:05 1022 30.18 851 25.13 19.8 67.6 53 9.9 49.9
20:10 1022 30.18 851 25.13 19.7 67.4 53 10 50
20:15 1022 30.18 851 25.13 19.6 67.2 54 10.1 50.2
20:20 1022 30.18 851 25.13 19.5 67 54 10.1 50.2
20:25 1022 30.18 852 25.16 19.4 66.9 55 10.2 50.3
20:30 1022 30.18 852 25.16 19.2 66.6 55 10.2 50.4
20:35 1022 30.18 852 25.16 19.1 66.4 55 10.1 50.1
20:40 1022 30.18 852 25.16 19 66.2 57 10.3 50.6
20:45 1022 30.18 852 25.16 18.8 65.8 57 10.3 50.6
20:50 1022 30.18 852 25.16 18.6 65.5 58 10.3 50.5
20:55 1022 30.18 852 25.16 18.5 65.3 58 10.3 50.5
21:00 1023 30.21 852 25.16 18.4 65 59 10.4 50.7
21:05 1023 30.21 852 25.16 18.2 64.7 60 10.3 50.6
21:10 1023 30.21 852 25.16 18 64.4 61 10.4 50.7
21:15 1023 30.21 852 25.16 17.8 64.1 61 10.3 50.5
21:20 1023 30.21 852 25.16 17.8 64 61 10.3 50.5
21:25 1023 30.21 852 25.16 17.7 63.9 61 10.3 50.5
21:30 1023 30.21 852 25.16 17.6 63.7 62 10.3 50.6
21:35 1023 30.21 852 25.16 17.5 63.5 62 10.2 50.4
21:40 1023 30.21 852 25.16 17.5 63.5 62 10.2 50.4
21:45 1023 30.21 852 25.16 17.5 63.4 62 10.2 50.4
21:50 1023 30.21 852 25.16 17.5 63.5 62 10.2 50.4
21:55 1023 30.21 852 25.16 17.5 63.6 62 10.1 50.3
22:00 1023 30.21 852 25.16 17.7 63.8 61 10.2 50.4
22:05 1023 30.21 852 25.16 17.7 63.8 61 10.2 50.3
22:10 1023 30.21 852 25.16 17.7 63.8 61 10.2 50.4
22:15 1023 30.21 852 25.16 17.6 63.7 61 10.1 50.2
22:20 1023 30.21 852 25.16 17.7 63.8 61 10.2 50.3
22:25 1023 30.21 852 25.16 17.6 63.6 62 10.3 50.5
22:30 1023 30.21 852 25.16 17.4 63.4 62 10.2 50.4
22:35 1023 30.21 852 25.16 17.3 63.2 63 10.2 50.4
22:40 1023 30.21 852 25.16 17.3 63.1 63 10.3 50.5
22:45 1023 30.21 852 25.16 17.2 62.9 63 10.2 50.4
22:50 1023 30.21 852 25.16 17.3 63.1 63 10.2 50.4
22:55 1023 30.21 852 25.16 17.3 63.1 63 10.2 50.4
23:00 1023 30.21 852 25.16 17.2 63 63 10.2 50.3
23:05 1023 30.21 852 25.16 17.2 63 63 10.2 50.3
23:10 1023 30.21 852 25.16 17.2 63 63 10.2 50.4
23:15 1023 30.21 852 25.16 17.1 62.7 64 10.2 50.4
23:20 1023 30.21 852 25.16 17 62.6 64 10.2 50.3
23:25 1023 30.21 852 25.16 17 62.5 64 10.2 50.3
23:30 1023 30.21 852 25.16 16.9 62.5 64 10.2 50.4
23:35 1023 30.21 852 25.16 16.8 62.3 65 10.2 50.3
23:40 1023 30.21 852 25.16 16.8 62.2 65 10.2 50.4
23:45 1023 30.21 852 25.16 16.7 62 65 10.2 50.3
23:50 1023 30.21 852 25.16 16.7 62 65 10.1 50.2
23:55 1023 30.21 853 25.19 16.7 62.1 65 10.2 50.3
24:00 1023 30.21 853 25.19 16.7 62 65 10.1 50.2